Time;durP1;ratioP1;P1;durP2;ratioP2;P2;SDS_P1;SDS_P2;PMS_P1;PMS_P2;Temp;Humidity;BMP_temperature;BMP_pressure;BME280_temperature;BME280_humidity;BME280_pressure;Samples;Min_cycle;Max_cycle;Signal;HPM_P1;HPM_P2
2022/05/05 00:00:44;;;;;;;8.65;4.60;;;8.20;99.90;;;;;;7363361;32;20525;-59
2022/05/05 00:04:46;;;;;;;6.35;4.43;;;8.30;99.90;;;;;;7349370;32;20111;-60
2022/05/05 00:08:48;;;;;;;11.07;4.57;;;8.30;99.90;;;;;;7362495;32;20132;-59
2022/05/05 00:17:11;;;;;;;9.40;4.22;;;8.30;99.90;;;;;;7362422;32;20241;-60
2022/05/05 00:21:13;;;;;;;8.32;4.47;;;8.40;99.90;;;;;;7359327;32;20111;-60
2022/05/05 00:25:14;;;;;;;6.93;4.40;;;8.40;99.90;;;;;;7358991;32;20144;-60
2022/05/05 00:29:16;;;;;;;8.77;4.87;;;8.50;99.90;;;;;;7357442;32;20586;-60
2022/05/05 00:33:18;;;;;;;10.75;4.35;;;8.50;99.90;;;;;;7356098;32;20103;-60
2022/05/05 00:37:19;;;;;;;9.45;4.80;;;8.50;99.90;;;;;;7360893;32;20518;-59
2022/05/05 00:41:23;;;;;;;6.70;4.45;;;8.50;99.90;;;;;;7363503;32;20519;-60
2022/05/05 00:45:24;;;;;;;8.27;4.85;;;8.50;99.90;;;;;;7350976;32;20123;-60
2022/05/05 00:49:26;;;;;;;9.40;4.85;;;8.50;99.90;;;;;;7368394;32;20118;-60
2022/05/05 00:53:28;;;;;;;8.60;4.20;;;8.50;99.90;;;;;;7363181;32;20104;-59
2022/05/05 00:57:30;;;;;;;10.32;5.05;;;8.50;99.90;;;;;;7356439;32;20736;-59
2022/05/05 01:01:33;;;;;;;7.87;4.90;;;8.50;99.90;;;;;;7354837;32;20112;-60
2022/05/05 01:05:38;;;;;;;11.38;4.57;;;8.60;99.90;;;;;;7355581;32;20095;-60
2022/05/05 01:09:40;;;;;;;10.68;4.47;;;8.60;99.90;;;;;;7353259;32;20190;-59
2022/05/05 01:13:43;;;;;;;6.30;4.43;;;8.70;99.90;;;;;;7369379;32;20767;-60
2022/05/05 01:17:45;;;;;;;9.90;5.00;;;8.70;99.90;;;;;;7356345;32;20165;-60
2022/05/05 01:21:57;;;;;;;6.30;4.62;;;8.70;99.90;;;;;;7360490;32;20164;-60
2022/05/05 01:30:19;;;;;;;11.40;4.18;;;8.80;99.90;;;;;;7358547;32;20245;-60
2022/05/05 01:34:21;;;;;;;10.88;4.72;;;8.70;99.90;;;;;;7347898;32;20145;-60
2022/05/05 01:38:36;;;;;;;7.62;4.55;;;8.80;99.90;;;;;;7363057;32;20111;-60
2022/05/05 01:42:38;;;;;;;8.02;4.53;;;8.80;99.90;;;;;;7362619;32;20100;-59
2022/05/05 01:46:41;;;;;;;5.82;4.40;;;8.80;99.90;;;;;;7358740;32;20320;-60
2022/05/05 01:50:43;;;;;;;9.77;4.68;;;8.80;99.90;;;;;;7362175;32;20385;-59
2022/05/05 01:54:44;;;;;;;9.65;4.80;;;8.80;99.90;;;;;;7362325;32;20129;-59
2022/05/05 01:58:46;;;;;;;8.27;4.60;;;8.80;99.90;;;;;;7361227;32;20606;-59
2022/05/05 02:02:47;;;;;;;7.60;4.32;;;8.80;99.90;;;;;;7357108;32;20546;-59
2022/05/05 02:06:49;;;;;;;11.88;4.72;;;8.70;99.90;;;;;;7356303;32;20104;-60
2022/05/05 02:10:51;;;;;;;9.25;5.03;;;8.70;99.90;;;;;;7357612;32;20139;-60
2022/05/05 02:14:52;;;;;;;10.57;5.12;;;8.60;99.90;;;;;;7351729;32;20641;-60
2022/05/05 02:18:54;;;;;;;10.15;4.87;;;8.60;99.90;;;;;;7355320;32;20749;-60
2022/05/05 02:22:55;;;;;;;12.10;5.45;;;8.50;99.90;;;;;;7361246;32;20107;-60
2022/05/05 02:26:57;;;;;;;10.65;5.12;;;8.50;99.90;;;;;;7357761;32;20102;-60
2022/05/05 02:30:59;;;;;;;7.40;4.05;;;8.40;99.90;;;;;;7368174;32;20135;-60
2022/05/05 02:35:00;;;;;;;7.22;4.47;;;8.40;99.90;;;;;;7363442;32;20198;-60
2022/05/05 02:39:02;;;;;;;9.68;4.87;;;8.30;99.90;;;;;;7355808;32;20914;-59
2022/05/05 02:43:06;;;;;;;10.95;4.57;;;8.30;99.90;;;;;;7361684;32;20648;-60
2022/05/05 02:47:08;;;;;;;10.15;4.65;;;8.30;99.90;;;;;;7362032;32;20186;-60
2022/05/05 02:51:10;;;;;;;7.50;4.37;;;8.20;99.90;;;;;;7373932;32;20208;-57
2022/05/05 02:55:12;;;;;;;9.95;5.15;;;8.20;99.90;;;;;;7350296;32;20130;-58
2022/05/05 02:59:14;;;;;;;9.35;4.60;;;8.10;99.90;;;;;;7359856;32;20499;-60
2022/05/05 03:03:15;;;;;;;8.32;4.90;;;8.00;99.90;;;;;;7358190;32;20116;-60
2022/05/05 03:07:17;;;;;;;7.00;4.32;;;7.90;99.90;;;;;;7357265;32;20196;-60
2022/05/05 03:11:19;;;;;;;7.00;4.32;;;7.80;99.90;;;;;;7366054;32;20187;-60
2022/05/05 03:15:20;;;;;;;9.82;4.57;;;7.80;99.90;;;;;;7366559;32;20615;-60
2022/05/05 03:19:22;;;;;;;11.70;5.32;;;7.80;99.90;;;;;;7359488;32;20123;-60
2022/05/05 03:23:24;;;;;;;9.02;4.85;;;7.70;99.90;;;;;;7360293;32;20204;-60
2022/05/05 03:27:25;;;;;;;8.30;4.87;;;7.70;99.90;;;;;;7361386;32;20665;-60
2022/05/05 03:31:27;;;;;;;8.05;4.60;;;7.60;99.90;;;;;;7362451;32;20103;-60
2022/05/05 03:35:29;;;;;;;7.40;4.62;;;7.50;99.90;;;;;;7362383;32;20138;-60
2022/05/05 03:39:30;;;;;;;9.52;5.35;;;7.50;99.90;;;;;;7362270;32;20633;-60
2022/05/05 03:43:32;;;;;;;6.72;4.57;;;7.40;99.90;;;;;;7352166;32;20221;-60
2022/05/05 03:47:40;;;;;;;7.78;4.47;;;7.40;99.90;;;;;;7356641;32;20591;-60
2022/05/05 03:51:42;;;;;;;9.07;4.43;;;7.30;99.90;;;;;;7364394;32;20127;-59
2022/05/05 03:55:44;;;;;;;11.12;4.65;;;7.40;99.90;;;;;;7361797;32;20129;-58
2022/05/05 03:59:46;;;;;;;9.68;4.85;;;7.40;99.90;;;;;;7358292;32;20126;-58
2022/05/05 04:03:47;;;;;;;6.57;4.50;;;7.50;99.90;;;;;;7362278;32;20111;-58
2022/05/05 04:07:49;;;;;;;9.55;5.30;;;7.50;99.90;;;;;;7356106;32;20400;-59
2022/05/05 04:11:51;;;;;;;6.93;4.80;;;7.50;99.90;;;;;;7357905;32;20212;-59
2022/05/05 04:15:53;;;;;;;9.30;5.20;;;7.60;99.90;;;;;;7359636;32;20129;-59
2022/05/05 04:19:55;;;;;;;8.57;4.87;;;7.70;99.90;;;;;;7366127;32;20186;-59
2022/05/05 04:23:58;;;;;;;9.10;4.85;;;7.70;99.90;;;;;;7359193;32;20159;-59
2022/05/05 04:28:00;;;;;;;9.95;5.60;;;7.70;99.90;;;;;;7357995;32;20098;-59
2022/05/05 04:32:01;;;;;;;9.32;5.25;;;7.80;99.90;;;;;;7358779;32;20130;-60
2022/05/05 04:36:03;;;;;;;7.45;5.12;;;7.80;99.90;;;;;;7361203;32;20135;-59
2022/05/05 04:40:06;;;;;;;11.20;5.37;;;7.80;99.90;;;;;;7358407;32;20196;-59
2022/05/05 04:44:08;;;;;;;7.95;5.60;;;7.90;99.90;;;;;;7357031;32;20201;-59
2022/05/05 04:48:09;;;;;;;9.75;5.20;;;7.90;99.90;;;;;;7357680;32;20111;-61
2022/05/05 04:52:11;;;;;;;9.13;5.03;;;8.00;99.90;;;;;;7359801;32;20186;-61
2022/05/05 04:56:14;;;;;;;10.07;4.72;;;8.10;99.90;;;;;;7362145;32;20198;-61
2022/05/05 05:00:16;;;;;;;14.32;8.05;;;8.20;99.90;;;;;;7363039;32;20170;-62
2022/05/05 05:04:18;;;;;;;10.43;5.65;;;8.30;99.90;;;;;;7354886;32;20193;-62
2022/05/05 05:08:20;;;;;;;10.07;5.40;;;8.40;99.90;;;;;;7355144;32;20440;-62
2022/05/05 05:12:22;;;;;;;10.45;5.68;;;8.50;99.90;;;;;;7359510;32;20249;-62
2022/05/05 05:16:23;;;;;;;13.35;5.87;;;8.60;99.90;;;;;;7361414;32;20561;-60
2022/05/05 05:20:41;;;;;;;;;;;8.60;99.90;;;;;;7358552;32;20194;-62
2022/05/05 05:24:43;;;;;;;11.52;6.18;;;8.80;99.90;;;;;;7357593;32;20612;-62
2022/05/05 05:28:44;;;;;;;10.90;5.82;;;8.90;99.90;;;;;;7359064;32;20212;-63
2022/05/05 05:32:46;;;;;;;8.63;5.90;;;9.00;99.90;;;;;;7358422;32;20102;-63
2022/05/05 05:36:49;;;;;;;14.32;6.87;;;9.00;99.90;;;;;;7356258;32;20158;-64
2022/05/05 05:40:52;;;;;;;13.90;6.22;;;9.20;99.90;;;;;;7347244;32;20172;-64
2022/05/05 05:44:53;;;;;;;9.10;5.93;;;9.40;99.90;;;;;;7358808;32;20924;-62
2022/05/05 05:48:56;;;;;;;10.23;6.03;;;9.70;99.90;;;;;;7342914;32;20111;-63
2022/05/05 05:53:05;;;;;;;10.07;6.12;;;9.90;99.90;;;;;;7358776;32;20124;-65
2022/05/05 05:57:06;;;;;;;10.65;5.45;;;10.10;99.90;;;;;;7349724;32;20186;-64
2022/05/05 06:01:08;;;;;;;13.73;6.35;;;10.30;99.90;;;;;;7357419;32;20107;-63
2022/05/05 06:05:10;;;;;;;9.48;5.85;;;10.60;99.90;;;;;;7355734;32;22217;-60
2022/05/05 06:09:13;;;;;;;19.50;7.43;;;11.00;99.90;;;;;;7352273;32;20205;-60
2022/05/05 06:13:15;;;;;;;10.35;6.10;;;11.30;99.90;;;;;;7351966;32;20194;-64
2022/05/05 06:17:17;;;;;;;16.75;7.20;;;11.50;99.90;;;;;;7350860;32;20237;-63
2022/05/05 06:21:18;;;;;;;12.98;6.35;;;11.70;99.90;;;;;;7351274;32;20209;-62
2022/05/05 06:25:24;;;;;;;11.68;6.10;;;11.90;99.90;;;;;;7354197;32;20095;-63
2022/05/05 06:29:26;;;;;;;12.00;6.75;;;12.20;99.90;;;;;;7362363;32;20375;-61
2022/05/05 06:33:28;;;;;;;16.02;7.05;;;12.30;99.90;;;;;;7356187;32;20718;-61
2022/05/05 06:37:30;;;;;;;14.95;6.53;;;12.40;99.90;;;;;;7351706;32;20286;-61
2022/05/05 06:41:32;;;;;;;13.23;6.15;;;12.50;99.90;;;;;;7353803;32;20674;-61
2022/05/05 06:45:33;;;;;;;14.50;6.25;;;12.50;99.90;;;;;;7355224;32;20107;-61
2022/05/05 06:49:35;;;;;;;12.65;6.47;;;12.50;99.90;;;;;;7358214;32;20498;-62
2022/05/05 06:53:37;;;;;;;15.15;6.75;;;12.60;99.90;;;;;;7348961;32;20229;-60
2022/05/05 06:57:39;;;;;;;12.93;6.22;;;12.60;99.90;;;;;;7349168;32;20099;-61
2022/05/05 07:01:53;;;;;;;15.13;6.40;;;12.70;99.90;;;;;;7357960;32;20209;-61
2022/05/05 07:05:55;;;;;;;17.25;7.45;;;12.80;99.90;;;;;;7353639;32;20528;-61
2022/05/05 07:14:17;;;;;;;13.20;6.68;;;12.90;99.90;;;;;;7358485;32;20605;-61
2022/05/05 07:18:19;;;;;;;11.55;6.22;;;13.00;99.90;;;;;;7363006;32;20190;-61
2022/05/05 07:22:21;;;;;;;13.25;6.45;;;13.00;99.90;;;;;;7361857;32;20119;-61
2022/05/05 07:26:22;;;;;;;11.27;5.75;;;13.20;99.90;;;;;;7360501;32;20245;-62
2022/05/05 07:30:24;;;;;;;12.48;6.00;;;13.40;99.90;;;;;;7359454;32;20226;-62
2022/05/05 07:34:26;;;;;;;13.98;6.60;;;13.50;99.90;;;;;;7359797;32;20110;-61
2022/05/05 07:38:28;;;;;;;13.18;6.43;;;13.30;99.90;;;;;;7364688;32;20491;-62
2022/05/05 07:42:30;;;;;;;13.40;6.72;;;13.30;99.90;;;;;;7357418;32;20198;-62
2022/05/05 07:46:32;;;;;;;17.80;6.72;;;13.60;99.90;;;;;;7351180;32;20702;-63
2022/05/05 07:50:34;;;;;;;15.73;7.15;;;13.80;99.90;;;;;;7358963;32;20095;-62
2022/05/05 07:54:38;;;;;;;12.65;5.80;;;13.90;99.90;;;;;;7359117;32;20600;-61
2022/05/05 07:58:40;;;;;;;11.57;5.40;;;14.00;99.90;;;;;;7352771;32;20613;-62
2022/05/05 08:02:42;;;;;;;13.88;5.32;;;14.30;99.90;;;;;;7354051;32;20130;-63
2022/05/05 08:06:44;;;;;;;8.15;4.80;;;14.70;99.90;;;;;;7363415;32;20103;-64
2022/05/05 08:10:47;;;;;;;10.45;4.97;;;15.00;99.90;;;;;;7358177;32;20150;-63
2022/05/05 08:14:49;;;;;;;14.25;5.18;;;15.20;99.90;;;;;;7363235;32;20131;-63
2022/05/05 08:18:51;;;;;;;13.88;5.45;;;15.30;99.90;;;;;;7362241;32;20365;-62
2022/05/05 08:22:52;;;;;;;11.18;4.80;;;15.50;99.90;;;;;;7357561;32;20099;-62
2022/05/05 08:31:14;;;;;;;12.27;6.55;;;15.70;99.90;;;;;;7353341;32;20462;-62
2022/05/05 08:35:16;;;;;;;17.17;6.45;;;15.80;99.90;;;;;;7361523;32;20289;-63
2022/05/05 08:39:18;;;;;;;12.55;6.65;;;16.20;99.90;;;;;;7360682;32;20178;-64
2022/05/05 08:43:20;;;;;;;17.02;8.82;;;16.50;99.90;;;;;;7360018;32;20103;-64
2022/05/05 08:47:26;;;;;;;19.83;9.38;;;16.90;99.90;;;;;;7360481;32;20265;-64
2022/05/05 08:51:36;;;;;;;21.85;11.07;;;16.90;99.90;;;;;;7357045;32;20806;-63
2022/05/05 08:55:38;;;;;;;15.18;7.62;;;17.40;99.90;;;;;;7356363;32;20209;-64
2022/05/05 08:59:39;;;;;;;13.45;6.90;;;17.30;99.90;;;;;;7356287;32;20130;-64
2022/05/05 09:03:43;;;;;;;14.82;8.25;;;18.20;99.90;;;;;;7353000;32;20107;-63
2022/05/05 09:07:49;;;;;;;18.02;8.40;;;18.50;99.90;;;;;;7360259;32;20522;-64
2022/05/05 09:12:09;;;;;;;15.52;7.55;;;18.90;95.10;;;;;;7360428;32;20212;-64
2022/05/05 09:16:24;;;;;;;16.20;8.57;;;19.60;95.70;;;;;;7357462;32;20820;-63
2022/05/05 09:20:35;;;;;;;19.55;9.05;;;20.10;91.30;;;;;;7353972;32;20125;-65
2022/05/05 09:24:49;;;;;;;13.35;8.20;;;20.20;88.20;;;;;;7359985;32;20193;-63
2022/05/05 09:28:51;;;;;;;15.45;9.40;;;21.00;86.90;;;;;;7358818;32;20119;-63
2022/05/05 09:32:53;;;;;;;16.87;8.73;;;21.40;82.30;;;;;;7358484;32;20107;-64
2022/05/05 09:36:55;;;;;;;19.17;10.23;;;21.20;82.30;;;;;;7354111;32;20757;-64
2022/05/05 09:41:03;;;;;;;22.23;9.93;;;20.60;80.70;;;;;;7351830;32;20107;-64
2022/05/05 09:45:18;;;;;;;13.62;8.80;;;21.00;83.80;;;;;;7358074;32;20103;-64
2022/05/05 09:49:20;;;;;;;18.75;10.18;;;22.00;81.10;;;;;;7357879;32;20155;-64
2022/05/05 09:58:02;;;;;;;15.45;9.25;;;22.00;73.80;;;;;;7319256;32;20130;-64
2022/05/05 10:02:12;;;;;;;14.95;9.60;;;21.80;78.00;;;;;;7354185;32;21067;-66
2022/05/05 10:06:21;;;;;;;17.20;9.70;;;21.60;76.50;;;;;;7359644;32;20116;-67
2022/05/05 10:10:29;;;;;;;15.23;9.52;;;21.50;72.30;;;;;;7360728;32;20245;-61
2022/05/05 10:14:31;;;;;;;12.52;8.77;;;21.20;73.20;;;;;;7353069;32;20726;-62
2022/05/05 10:18:37;;;;;;;18.83;9.90;;;20.70;79.50;;;;;;7361347;32;20288;-61
2022/05/05 10:23:13;;;;;;;17.50;10.30;;;21.00;80.10;;;;;;7350366;32;20146;-58
2022/05/05 10:27:20;;;;;;;18.35;8.93;;;20.70;82.00;;;;;;7353456;32;21224;-60
2022/05/05 10:31:31;;;;;;;15.25;9.20;;;20.50;82.30;;;;;;7352984;32;20157;-62
2022/05/05 10:35:47;;;;;;;16.45;9.25;;;19.60;81.40;;;;;;7354136;32;20266;-63
2022/05/05 10:39:49;;;;;;;12.70;9.43;;;18.60;86.00;;;;;;7354410;32;20134;-62
2022/05/05 10:44:18;;;;;;;18.27;9.68;;;18.50;90.30;;;;;;7350454;32;20115;-62
2022/05/05 10:48:30;;;;;;;17.08;8.80;;;18.60;91.80;;;;;;7359884;32;20139;-63
2022/05/05 10:52:31;;;;;;;16.08;9.48;;;18.50;94.40;;;;;;7365586;32;20245;-62
2022/05/05 10:56:33;;;;;;;17.08;10.38;;;18.70;92.90;;;;;;7362659;32;20201;-63
2022/05/05 11:00:42;;;;;;;16.98;9.50;;;18.80;90.30;;;;;;7359672;32;20272;-62
2022/05/05 11:04:43;;;;;;;15.73;9.70;;;18.30;92.60;;;;;;7361124;32;20454;-62
2022/05/05 11:08:53;;;;;;;20.15;10.05;;;17.80;94.30;;;;;;7365407;32;20111;-62
2022/05/05 11:12:54;;;;;;;18.00;9.40;;;17.70;93.60;;;;;;7361589;32;20110;-63
2022/05/05 11:21:32;;;;;;;15.10;7.72;;;17.80;96.40;;;;;;7357472;32;20409;-63
2022/05/05 11:25:34;;;;;;;13.73;7.93;;;17.80;96.60;;;;;;7360760;32;20103;-62
2022/05/05 11:29:35;;;;;;;14.25;8.10;;;17.70;96.10;;;;;;7355783;32;20812;-62
2022/05/05 11:33:38;;;;;;;16.30;10.32;;;18.20;96.40;;;;;;7361964;32;20126;-62
2022/05/05 11:37:43;;;;;;;18.50;10.02;;;17.90;97.00;;;;;;7367116;32;20145;-62
2022/05/05 11:41:56;;;;;;;17.60;9.35;;;18.70;95.50;;;;;;7361714;32;20130;-63
2022/05/05 11:45:59;;;;;;;15.65;8.88;;;18.80;95.60;;;;;;7360313;32;20205;-62
2022/05/05 11:50:01;;;;;;;17.73;8.93;;;18.80;92.20;;;;;;7362935;32;20130;-61
2022/05/05 11:54:10;;;;;;;17.00;9.65;;;18.50;92.70;;;;;;7361614;32;20190;-61
2022/05/05 12:01:36;;;;;;;14.57;9.30;;;18.40;90.10;;;;;;7351343;32;20107;-62
2022/05/05 12:02:37;;;;;;;14.82;8.68;;;18.20;93.00;;;;;;7370666;32;20114;-64
2022/05/05 12:06:42;;;;;;;14.82;8.55;;;18.40;92.70;;;;;;7362983;32;20121;-64
2022/05/05 12:10:44;;;;;;;18.37;9.27;;;18.30;92.70;;;;;;7369387;32;20107;-63
2022/05/05 12:14:56;;;;;;;22.55;11.90;;;18.20;92.70;;;;;;7370051;32;20111;-62
2022/05/05 12:18:59;;;;;;;22.48;12.10;;;18.30;92.60;;;;;;7357004;32;20282;-64
2022/05/05 12:23:12;;;;;;;17.75;11.23;;;18.10;94.20;;;;;;7365749;32;20099;-62
2022/05/05 12:27:14;;;;;;;17.00;10.73;;;18.10;93.80;;;;;;7360584;32;20195;-64
2022/05/05 12:31:23;;;;;;;16.42;9.98;;;18.50;94.00;;;;;;7357872;32;20099;-62
2022/05/05 12:35:35;;;;;;;16.80;10.23;;;18.80;94.30;;;;;;7358904;32;20222;-63
2022/05/05 12:39:49;;;;;;;16.77;8.80;;;18.90;90.50;;;;;;7362554;32;20541;-62
2022/05/05 12:43:51;;;;;;;22.05;10.80;;;18.80;89.70;;;;;;7364844;32;20476;-63
2022/05/05 12:47:54;;;;;;;23.92;11.55;;;18.60;94.10;;;;;;7357551;32;20194;-61
2022/05/05 12:51:56;;;;;;;20.73;11.05;;;18.30;93.60;;;;;;7359586;32;20181;-64
2022/05/05 13:00:23;;;;;;;16.20;11.70;;;18.00;93.70;;;;;;7353888;32;20210;-64
2022/05/05 13:04:47;;;;;;;24.37;12.40;;;18.00;94.80;;;;;;7363036;32;20176;-64
2022/05/05 13:08:52;;;;;;;16.80;10.18;;;18.30;91.40;;;;;;7356598;32;20129;-63
2022/05/05 13:12:53;;;;;;;18.40;10.65;;;18.30;95.00;;;;;;7363908;32;20106;-62
2022/05/05 13:16:57;;;;;;;17.23;11.10;;;18.40;99.90;;;;;;7360910;32;20103;-63
2022/05/05 13:20:59;;;;;;;18.05;11.05;;;18.30;96.20;;;;;;7353850;32;20111;-63
2022/05/05 13:25:00;;;;;;;18.27;9.88;;;18.10;92.60;;;;;;7362451;32;20095;-63
2022/05/05 13:29:02;;;;;;;17.25;10.30;;;18.10;94.40;;;;;;7353483;32;20104;-62
2022/05/05 13:33:04;;;;;;;18.52;10.90;;;18.00;93.50;;;;;;7361477;32;20134;-62
2022/05/05 13:37:05;;;;;;;17.87;10.80;;;17.90;95.30;;;;;;7355014;32;20135;-62
2022/05/05 13:41:07;;;;;;;14.50;9.52;;;18.00;96.40;;;;;;7352356;32;20134;-62
2022/05/05 13:45:09;;;;;;;16.10;9.35;;;18.20;93.90;;;;;;7360863;32;20534;-62
2022/05/05 13:49:11;;;;;;;21.52;10.30;;;18.20;95.30;;;;;;7356681;32;21653;-61
2022/05/05 13:53:13;;;;;;;13.05;8.40;;;18.20;95.60;;;;;;7346026;32;20207;-62
2022/05/05 13:57:15;;;;;;;12.63;7.78;;;18.70;94.00;;;;;;7347128;32;20233;-62
2022/05/05 14:01:16;;;;;;;16.98;8.35;;;18.70;93.70;;;;;;7350181;32;20162;-62
2022/05/05 14:05:19;;;;;;;11.93;7.53;;;18.40;90.70;;;;;;7361884;32;20521;-62
2022/05/05 14:13:41;;;;;;;16.30;7.78;;;18.20;93.20;;;;;;7351581;32;20099;-61
2022/05/05 14:17:43;;;;;;;17.45;10.30;;;17.90;93.10;;;;;;7354109;32;20129;-61
2022/05/05 14:21:44;;;;;;;13.30;8.18;;;17.80;92.80;;;;;;7366251;32;20830;-62
2022/05/05 14:25:46;;;;;;;18.27;7.75;;;17.80;94.20;;;;;;7359728;32;20605;-62
2022/05/05 14:29:48;;;;;;;12.75;6.70;;;17.80;94.70;;;;;;7357172;32;20114;-63
2022/05/05 14:33:50;;;;;;;17.08;7.97;;;18.00;95.40;;;;;;7358605;32;20225;-61
2022/05/05 14:37:51;;;;;;;10.18;6.97;;;18.00;93.00;;;;;;7357260;32;20130;-61
2022/05/05 14:41:53;;;;;;;13.50;6.57;;;17.90;92.30;;;;;;7361768;32;20321;-61
2022/05/05 14:45:55;;;;;;;11.23;6.80;;;18.00;93.90;;;;;;7360103;32;20106;-62
2022/05/05 14:49:59;;;;;;;12.07;8.05;;;17.90;93.00;;;;;;7360273;32;20265;-62
2022/05/05 14:54:00;;;;;;;10.75;6.57;;;18.10;92.20;;;;;;7357598;32;20834;-61
2022/05/05 14:58:02;;;;;;;18.73;9.27;;;18.00;92.50;;;;;;7359023;32;20130;-62
2022/05/05 15:02:04;;;;;;;12.75;7.75;;;18.00;92.20;;;;;;7361757;32;20565;-61
2022/05/05 15:06:06;;;;;;;10.95;6.18;;;18.10;92.70;;;;;;7353973;32;20122;-62
2022/05/05 15:10:08;;;;;;;9.80;5.75;;;18.50;92.70;;;;;;7351344;32;20130;-62
2022/05/05 15:14:10;;;;;;;12.02;6.05;;;18.60;91.60;;;;;;7364498;32;20130;-64
2022/05/05 15:18:12;;;;;;;11.23;5.90;;;18.50;90.80;;;;;;7359375;32;20477;-64
2022/05/05 15:22:13;;;;;;;11.90;5.85;;;18.50;91.50;;;;;;7358923;32;20197;-65
2022/05/05 15:26:15;;;;;;;12.90;5.37;;;18.50;91.50;;;;;;7353908;32;20220;-62
2022/05/05 15:30:17;;;;;;;9.05;4.53;;;18.40;91.90;;;;;;7355776;32;20510;-62
2022/05/05 15:34:20;;;;;;;8.98;5.10;;;18.50;93.00;;;;;;7363200;32;20690;-60
2022/05/05 15:38:25;;;;;;;29.83;18.20;;;18.30;92.00;;;;;;7349367;32;20202;-61
2022/05/05 15:42:27;;;;;;;11.88;5.62;;;18.30;92.90;;;;;;7358824;32;20180;-61
2022/05/05 15:46:29;;;;;;;12.13;6.03;;;18.10;93.10;;;;;;7361712;32;20681;-60
2022/05/05 15:50:30;;;;;;;11.98;5.00;;;18.00;92.40;;;;;;7362000;32;20236;-60
2022/05/05 15:54:32;;;;;;;9.07;5.43;;;18.00;93.70;;;;;;7362906;32;20145;-61
2022/05/05 15:58:34;;;;;;;6.57;4.55;;;18.00;92.30;;;;;;7367732;32;20488;-61
2022/05/05 16:02:37;;;;;;;13.48;5.20;;;18.00;93.00;;;;;;7368961;32;20115;-62
2022/05/05 16:06:39;;;;;;;11.15;5.65;;;18.10;93.80;;;;;;7364034;32;20140;-62
2022/05/05 16:10:41;;;;;;;12.15;6.50;;;18.10;92.10;;;;;;7355930;32;20591;-62
2022/05/05 16:14:43;;;;;;;10.52;5.80;;;18.20;92.10;;;;;;7358725;32;20625;-62
2022/05/05 16:18:45;;;;;;;8.70;5.20;;;18.40;92.80;;;;;;7356924;32;20766;-63
2022/05/05 16:22:47;;;;;;;11.77;5.75;;;18.40;92.80;;;;;;7359009;32;20186;-62
2022/05/05 16:31:09;;;;;;;11.35;6.12;;;18.20;91.40;;;;;;7356254;32;20107;-62
2022/05/05 16:35:14;;;;;;;12.77;5.00;;;18.30;90.60;;;;;;7360144;32;20131;-60
2022/05/05 16:39:15;;;;;;;9.57;4.40;;;18.10;91.90;;;;;;7363915;32;20106;-62
2022/05/05 16:43:17;;;;;;;8.05;4.62;;;18.10;92.20;;;;;;7361256;32;20127;-62
2022/05/05 16:47:25;;;;;;;9.10;4.55;;;18.10;90.70;;;;;;7346484;32;20326;-62
2022/05/05 16:51:26;;;;;;;8.38;4.03;;;18.10;91.10;;;;;;7362330;32;20095;-62
2022/05/05 16:55:28;;;;;;;8.15;4.45;;;18.00;91.10;;;;;;7358783;32;20111;-63
2022/05/05 16:59:30;;;;;;;8.25;4.22;;;17.80;91.00;;;;;;7358211;32;20099;-62
2022/05/05 17:03:31;;;;;;;11.52;5.95;;;17.70;90.80;;;;;;7361745;32;20129;-61
2022/05/05 17:07:34;;;;;;;6.80;3.65;;;17.50;91.80;;;;;;7359526;32;20518;-62
2022/05/05 17:11:36;;;;;;;5.90;3.08;;;17.40;92.30;;;;;;7364188;32;20166;-63
2022/05/05 17:15:38;;;;;;;4.68;2.87;;;17.40;93.00;;;;;;7354345;32;20267;-62
2022/05/05 17:19:40;;;;;;;8.48;3.47;;;17.30;93.70;;;;;;7351793;32;20147;-62
2022/05/05 17:23:42;;;;;;;5.78;2.83;;;17.10;93.80;;;;;;7361742;32;20772;-62
2022/05/05 17:27:43;;;;;;;6.75;2.65;;;17.00;94.70;;;;;;7361531;32;20859;-63
2022/05/05 17:31:45;;;;;;;5.05;2.70;;;16.80;96.00;;;;;;7356589;32;20129;-62
2022/05/05 17:35:47;;;;;;;6.53;2.67;;;16.70;96.80;;;;;;7355187;32;20108;-62
2022/05/05 17:39:49;;;;;;;5.57;2.60;;;16.60;97.80;;;;;;7367415;32;20187;-63
2022/05/05 17:43:50;;;;;;;7.62;2.53;;;16.50;99.60;;;;;;7356513;32;20129;-61
2022/05/05 17:52:12;;;;;;;4.90;2.35;;;16.20;99.90;;;;;;7361585;32;20209;-64
2022/05/05 17:56:14;;;;;;;5.62;2.50;;;16.00;99.90;;;;;;7362020;32;20827;-60
2022/05/05 18:00:16;;;;;;;5.97;2.33;;;15.80;99.90;;;;;;7353637;32;20107;-62
2022/05/05 18:04:18;;;;;;;6.10;2.50;;;15.60;99.90;;;;;;7362812;32;20208;-62
2022/05/05 18:08:40;;;;;;;3.00;2.28;;;15.50;99.90;;;;;;7358891;32;20110;-63
2022/05/05 18:12:44;;;;;;;3.50;2.40;;;15.30;99.90;;;;;;7364298;32;20125;-63
2022/05/05 18:16:47;;;;;;;7.60;2.83;;;15.10;99.90;;;;;;7367399;32;20143;-63
2022/05/05 18:20:49;;;;;;;5.80;2.55;;;15.00;99.90;;;;;;7351854;32;20413;-66
2022/05/05 18:24:50;;;;;;;4.00;2.42;;;14.80;99.90;;;;;;7364562;32;20131;-66
2022/05/05 18:28:53;;;;;;;16.52;12.10;;;14.60;99.90;;;;;;7358358;32;20594;-64
2022/05/05 18:32:55;;;;;;;6.07;4.03;;;14.40;99.90;;;;;;7360945;32;20134;-65
2022/05/05 18:36:57;;;;;;;7.80;3.08;;;14.20;99.90;;;;;;7354414;32;20108;-64
2022/05/05 18:41:01;;;;;;;3.30;2.35;;;14.10;99.90;;;;;;7361984;32;20579;-65
2022/05/05 18:45:03;;;;;;;4.70;3.03;;;13.80;99.90;;;;;;7362801;32;20209;-65
2022/05/05 18:49:05;;;;;;;5.03;3.25;;;13.60;99.90;;;;;;7365396;32;20176;-65
2022/05/05 18:53:06;;;;;;;7.75;3.33;;;13.40;99.90;;;;;;7363860;32;20495;-65
2022/05/05 18:57:08;;;;;;;6.97;3.95;;;13.20;99.90;;;;;;7357234;32;20155;-63
2022/05/05 19:01:16;;;;;;;5.43;3.40;;;13.00;99.90;;;;;;7361659;32;20676;-63
2022/05/05 19:05:18;;;;;;;8.27;3.80;;;12.90;99.90;;;;;;7360206;32;20157;-63
2022/05/05 19:09:20;;;;;;;8.68;3.75;;;12.70;99.90;;;;;;7358847;32;20125;-63
2022/05/05 19:13:21;;;;;;;6.28;3.50;;;12.50;99.90;;;;;;7362515;32;20107;-62
2022/05/05 19:17:24;;;;;;;10.48;3.80;;;12.40;99.90;;;;;;7362500;32;20218;-63
2022/05/05 19:21:26;;;;;;;10.77;3.60;;;12.10;99.90;;;;;;7369845;32;20611;-64
2022/05/05 19:25:28;;;;;;;9.82;4.07;;;12.10;99.90;;;;;;7366181;32;20483;-62
2022/05/05 19:29:30;;;;;;;8.13;4.05;;;11.90;99.90;;;;;;7366327;32;20126;-62
2022/05/05 19:33:32;;;;;;;6.78;3.97;;;11.80;99.90;;;;;;7360814;32;20465;-63
2022/05/05 19:37:33;;;;;;;24.17;15.63;;;11.60;99.90;;;;;;7363272;32;20683;-63
2022/05/05 19:41:35;;;;;;;10.57;4.03;;;11.50;99.90;;;;;;7363395;32;20108;-63
2022/05/05 19:45:37;;;;;;;7.95;4.20;;;11.30;99.90;;;;;;7355988;32;20202;-63
2022/05/05 19:49:39;;;;;;;7.53;4.65;;;11.20;99.90;;;;;;7369367;32;20429;-61
2022/05/05 19:53:40;;;;;;;5.30;3.70;;;11.10;99.90;;;;;;7369393;32;20114;-63
2022/05/05 20:02:02;;;;;;;7.80;4.37;;;10.80;99.90;;;;;;7365269;32;20226;-63
2022/05/05 20:10:24;;;;;;;8.15;4.22;;;10.60;99.90;;;;;;7365410;32;20212;-62
2022/05/05 20:14:26;;;;;;;7.43;3.83;;;10.50;99.90;;;;;;7360239;32;20129;-64
2022/05/05 20:18:28;;;;;;;6.10;3.90;;;10.40;99.90;;;;;;7360784;32;20131;-62
2022/05/05 20:22:29;;;;;;;9.00;4.78;;;10.30;99.90;;;;;;7356745;32;20627;-63
2022/05/05 20:26:54;;;;;;;8.30;4.30;;;10.20;99.90;;;;;;7364211;32;20107;-62
2022/05/05 20:30:55;;;;;;;7.78;4.47;;;10.10;99.90;;;;;;7360767;32;20187;-62
2022/05/05 20:34:57;;;;;;;9.00;4.55;;;10.00;99.90;;;;;;7362043;32;20552;-62
2022/05/05 20:39:00;;;;;;;6.78;4.70;;;9.90;99.90;;;;;;7361694;32;20401;-62
2022/05/05 20:43:02;;;;;;;17.02;11.95;;;9.80;99.90;;;;;;7344065;32;20123;-62
2022/05/05 20:47:04;;;;;;;7.75;5.05;;;9.70;99.90;;;;;;7357009;32;20264;-62
2022/05/05 20:51:06;;;;;;;11.82;4.65;;;9.70;99.90;;;;;;7361284;32;20542;-62
2022/05/05 20:55:08;;;;;;;6.80;4.20;;;9.60;99.90;;;;;;7368563;32;20250;-62
2022/05/05 20:59:10;;;;;;;11.05;4.35;;;9.50;99.90;;;;;;7353699;32;20711;-63
2022/05/05 21:03:13;;;;;;;5.72;4.60;;;9.40;99.90;;;;;;7357512;32;20127;-64
2022/05/05 21:07:14;;;;;;;7.95;4.25;;;9.30;99.90;;;;;;7357569;32;20210;-64
2022/05/05 21:11:17;;;;;;;5.45;4.40;;;9.30;99.90;;;;;;7360839;32;20131;-64
2022/05/05 21:15:19;;;;;;;10.90;4.55;;;9.30;99.90;;;;;;7360613;32;20265;-63
2022/05/05 21:19:20;;;;;;;9.70;4.72;;;9.20;99.90;;;;;;7356742;32;20108;-61
2022/05/05 21:27:42;;;;;;;6.65;4.45;;;9.00;99.90;;;;;;7358706;32;20551;-61
2022/05/05 21:31:44;;;;;;;7.87;4.82;;;9.00;99.90;;;;;;7357267;32;20902;-61
2022/05/05 21:35:46;;;;;;;5.68;4.55;;;8.90;99.90;;;;;;7357782;32;20133;-61
2022/05/05 21:39:47;;;;;;;7.22;4.57;;;8.90;99.90;;;;;;7354367;32;20142;-64
2022/05/05 21:43:50;;;;;;;6.75;4.55;;;8.80;99.90;;;;;;7359373;32;20129;-63
2022/05/05 21:47:51;;;;;;;6.60;4.43;;;8.70;99.90;;;;;;7353671;32;20175;-61
2022/05/05 21:51:53;;;;;;;10.63;4.68;;;8.60;99.90;;;;;;7357852;32;20137;-60
2022/05/05 21:55:55;;;;;;;8.63;4.57;;;8.60;99.90;;;;;;7362151;32;21273;-60